Qaanaaq

KL  EN  DA
ASIAQ
Weather Now GREENLAND SURVEY
Updated [WGT/WGST] Temperature [°C] Wind [m/s] Air pressure [hPa] Relative humidity [%] Precipitation [mm]
Present Wind chill Speed Max
18.04 01:00-15,6-20,72,0 ⇙2,61016690,0
18.04 00:00-16,0-20,91,9 ⇑3,61016750,0
17.04 23:00-14,9-22,94,3 ⇑5,61015810,2
17.04 22:00-14,2-17,91,5 ⇖2,21014820,2
17.04 21:00-13,30,01,3 ⇗2,01013820,1
17.04 20:00-13,30,0n/an/an/a790,1
17.04 19:00-12,8-17,42,0 ⇗2,61012800,1
17.04 18:00-12,8-18,32,6 ⇗3,61011790,1
17.04 17:00-12,3-16,61,9 ⇗3,61010780,0
17.04 16:00-12,5-15,81,4 ⇖2,11010720,2
17.04 15:00-12,9-17,62,1 ⇖2,51009720,0
17.04 14:00-12,3-17,42,4 ⇖3,21009700,0
17.04 13:00-12,8-19,63,6 ⇖4,41009700,0
17.04 12:00-13,1-19,63,3 ⇖3,91009700,0
17.04 11:00-13,5-20,63,7 ⇖4,41008710,0
17.04 10:00-14,7-20,92,8 ⇖3,61008760,0
17.04 09:00-13,2-18,92,7 ⇖3,01008700,0
17.04 08:00-12,9-17,52,0 ⇐2,71008720,0
17.04 07:00-13,5-19,62,9 ⇐3,41008760,0
17.04 06:00-13,7-19,62,7 ⇐3,81007750,0
17.04 05:00-13,50,01,1 ⇖1,61007710,0
17.04 04:00-14,40,01,2 ⇖1,91006690,0
17.04 03:00-14,10,00,9 ⇙1,71006720,0
17.04 02:00-15,60,01,0 ⇖3,01006690,0
17.04 01:00-14,10,00,7 ⇖1,21005670,0
Position: (77.48527778,-69.3744444444)

[Back]